createdAt,value
2022-10-02T00:00:16.722Z,11.91
2022-10-02T00:02:47.504Z,11.91
2022-10-02T00:05:18.287Z,11.92
2022-10-02T00:07:48.403Z,11.95
2022-10-02T00:10:19.833Z,11.93
2022-10-02T00:12:49.274Z,11.95
2022-10-02T00:15:19.112Z,11.91
2022-10-02T00:17:50.287Z,11.93
2022-10-02T00:20:20.462Z,11.92
2022-10-02T00:22:53.132Z,11.93
2022-10-02T00:25:26.779Z,11.91
2022-10-02T00:28:13.727Z,11.92
2022-10-02T00:30:49.497Z,11.95
2022-10-02T00:33:23.191Z,11.97
2022-10-02T00:36:00.957Z,11.98
2022-10-02T00:38:39.126Z,11.95
2022-10-02T00:41:22.863Z,11.95
2022-10-02T00:44:13.241Z,11.97
2022-10-02T00:46:47.210Z,11.95
2022-10-02T00:49:35.608Z,11.94
2022-10-02T00:52:14.653Z,11.96
2022-10-02T00:55:18.995Z,11.98
2022-10-02T00:58:00.389Z,11.96
2022-10-02T01:00:28.110Z,11.98
2022-10-02T01:03:10.279Z,11.97
2022-10-02T01:05:38.426Z,11.96
2022-10-02T01:08:06.735Z,11.97
2022-10-02T01:10:37.090Z,11.97
2022-10-02T01:13:05.171Z,11.94
2022-10-02T01:15:34.967Z,11.96
2022-10-02T01:18:03.212Z,11.92
2022-10-02T01:20:36.138Z,11.93
2022-10-02T01:23:09.880Z,11.94
2022-10-02T01:25:38.987Z,11.96
2022-10-02T01:28:06.685Z,11.98
2022-10-02T01:30:35.994Z,11.97
2022-10-02T01:33:06.636Z,11.99
2022-10-02T01:35:37.157Z,11.99
2022-10-02T01:38:08.255Z,11.99
2022-10-02T01:40:38.775Z,12.00
2022-10-02T01:43:08.747Z,12.01
2022-10-02T01:45:51.274Z,12.03
2022-10-02T01:48:23.929Z,12.03
2022-10-02T01:51:01.765Z,12.04
2022-10-02T01:53:33.888Z,12.05
2022-10-02T01:56:08.895Z,12.06
2022-10-02T01:58:44.053Z,12.06
2022-10-02T02:01:19.581Z,12.03
2022-10-02T02:03:55.111Z,12.04
2022-10-02T02:06:29.397Z,12.02
2022-10-02T02:09:03.626Z,12.04
2022-10-02T02:11:32.804Z,12.03
2022-10-02T02:14:03.948Z,12.05
2022-10-02T02:16:33.643Z,12.07
2022-10-02T02:19:05.020Z,12.08
2022-10-02T02:21:35.376Z,12.08
2022-10-02T02:24:05.773Z,12.09
2022-10-02T02:26:35.183Z,12.08
2022-10-02T02:29:07.133Z,12.09
2022-10-02T02:31:39.211Z,12.09
2022-10-02T02:34:09.706Z,12.12
2022-10-02T02:36:40.146Z,12.12
2022-10-02T02:39:11.242Z,12.12
2022-10-02T02:41:43.035Z,12.11
2022-10-02T02:44:15.423Z,12.14
2022-10-02T02:46:59.269Z,12.13
2022-10-02T02:49:28.198Z,12.14
2022-10-02T02:51:57.473Z,12.12
2022-10-02T02:54:28.909Z,12.12
2022-10-02T02:56:58.446Z,12.12
2022-10-02T02:59:28.296Z,12.11
2022-10-02T03:01:55.999Z,12.09
2022-10-02T03:04:23.765Z,12.12
2022-10-02T03:06:54.241Z,12.12
2022-10-02T03:09:22.864Z,12.09
2022-10-02T03:11:54.571Z,12.09
2022-10-02T03:14:47.996Z,12.10
2022-10-02T03:17:25.071Z,12.08
2022-10-02T03:19:55.415Z,12.08
2022-10-02T03:22:29.394Z,12.07
2022-10-02T03:25:01.516Z,12.07
2022-10-02T03:27:35.558Z,12.07
2022-10-02T03:30:07.090Z,12.06
2022-10-02T03:32:35.432Z,12.04
2022-10-02T03:35:04.514Z,12.06
2022-10-02T03:37:32.555Z,12.07
2022-10-02T03:40:01.639Z,12.07
2022-10-02T03:42:32.675Z,12.06
2022-10-02T03:45:00.314Z,12.07
2022-10-02T03:47:29.293Z,12.08
2022-10-02T03:49:56.916Z,12.09
2022-10-02T03:52:25.403Z,12.11
2022-10-02T03:54:56.912Z,12.11
2022-10-02T03:57:26.196Z,12.08
2022-10-02T03:59:58.937Z,12.08
2022-10-02T04:02:33.957Z,12.09
2022-10-02T04:05:05.941Z,12.08
2022-10-02T04:07:37.189Z,12.08
2022-10-02T04:10:15.895Z,12.08
2022-10-02T04:12:46.735Z,12.08
2022-10-02T04:15:18.346Z,12.08
2022-10-02T04:17:49.568Z,12.09
2022-10-02T04:20:19.988Z,12.09
2022-10-02T04:22:51.857Z,12.10
2022-10-02T04:25:21.596Z,12.11
2022-10-02T04:27:54.405Z,12.11
2022-10-02T04:30:22.364Z,12.11
2022-10-02T04:32:51.625Z,12.11
2022-10-02T04:35:25.633Z,12.11
2022-10-02T04:38:08.608Z,12.12
2022-10-02T04:40:50.406Z,12.12
2022-10-02T04:43:33.495Z,12.12
2022-10-02T04:46:10.187Z,12.11
2022-10-02T04:48:52.994Z,12.09
2022-10-02T04:51:30.337Z,12.07
2022-10-02T04:54:10.406Z,12.08
2022-10-02T04:56:51.399Z,12.08
2022-10-02T04:59:28.129Z,12.10
2022-10-02T05:02:06.410Z,12.10
2022-10-02T05:04:56.377Z,12.11
2022-10-02T05:07:56.180Z,12.10
2022-10-02T05:10:42.940Z,12.12
2022-10-02T05:13:23.902Z,12.13
2022-10-02T05:16:11.910Z,12.13
2022-10-02T05:18:56.024Z,12.11
2022-10-02T05:22:09.556Z,12.13
2022-10-02T05:24:47.744Z,12.16
2022-10-02T05:27:31.294Z,12.16
2022-10-02T05:30:08.038Z,12.21
2022-10-02T05:33:01.903Z,12.20
2022-10-02T05:35:41.157Z,12.21
2022-10-02T05:38:19.978Z,12.20
2022-10-02T05:40:53.524Z,12.20
2022-10-02T05:43:29.579Z,12.17
2022-10-02T05:46:00.343Z,12.19
2022-10-02T05:48:30.238Z,12.19
2022-10-02T05:51:01.343Z,12.17
2022-10-02T05:53:35.959Z,12.15
2022-10-02T05:56:06.708Z,12.15
2022-10-02T05:58:37.361Z,12.13
2022-10-02T06:01:09.962Z,12.14
2022-10-02T06:03:43.510Z,12.13
2022-10-02T06:06:13.828Z,12.10
2022-10-02T06:08:46.211Z,12.11
2022-10-02T06:11:17.950Z,12.11
2022-10-02T06:13:48.710Z,12.09
2022-10-02T06:16:21.035Z,12.10
2022-10-02T06:18:51.479Z,12.12
2022-10-02T06:21:27.229Z,12.13
2022-10-02T06:23:58.842Z,12.12
2022-10-02T06:26:29.398Z,12.09
2022-10-02T06:29:02.462Z,12.11
2022-10-02T06:31:37.279Z,12.11
2022-10-02T06:34:05.010Z,12.10
2022-10-02T06:36:55.146Z,12.08
2022-10-02T06:39:38.201Z,12.08
2022-10-02T06:42:14.107Z,12.10
2022-10-02T06:44:48.018Z,12.10
2022-10-02T06:47:24.856Z,12.12
2022-10-02T06:50:03.890Z,12.12
2022-10-02T06:52:39.437Z,12.10
2022-10-02T06:55:26.445Z,12.11
2022-10-02T06:58:04.385Z,12.11
2022-10-02T07:00:34.042Z,12.12
2022-10-02T07:03:19.980Z,12.12
2022-10-02T07:06:08.984Z,12.13
2022-10-02T07:08:47.849Z,12.13
2022-10-02T07:11:22.254Z,12.15
2022-10-02T07:13:59.748Z,12.12
2022-10-02T07:16:42.750Z,12.14
2022-10-02T07:19:22.815Z,12.14
2022-10-02T07:21:56.679Z,12.13
2022-10-02T07:24:35.999Z,12.13
2022-10-02T07:27:10.251Z,12.12
2022-10-02T07:29:44.945Z,12.12
2022-10-02T07:32:37.593Z,12.13
2022-10-02T07:35:16.292Z,12.10
2022-10-02T07:37:49.130Z,12.11
2022-10-02T07:40:31.058Z,12.13
2022-10-02T07:43:19.781Z,12.12
2022-10-02T07:45:52.605Z,12.14
2022-10-02T07:48:35.150Z,12.17
2022-10-02T07:51:28.178Z,12.17
2022-10-02T07:53:59.053Z,12.20
2022-10-02T07:56:27.089Z,12.25
2022-10-02T07:58:58.451Z,12.26
2022-10-02T08:01:28.213Z,12.27
2022-10-02T08:03:57.588Z,12.27
2022-10-02T08:06:25.291Z,12.30
2022-10-02T08:08:56.431Z,12.32
2022-10-02T08:11:30.163Z,12.31
2022-10-02T08:14:03.521Z,12.33
2022-10-02T08:16:34.986Z,12.34
2022-10-02T08:19:05.663Z,12.36
2022-10-02T08:21:36.955Z,12.41
2022-10-02T08:24:10.017Z,12.46
2022-10-02T08:26:42.558Z,12.53
2022-10-02T08:29:16.899Z,12.59
2022-10-02T08:31:44.695Z,12.65
2022-10-02T08:34:16.528Z,12.70
2022-10-02T08:37:18.285Z,12.76
2022-10-02T08:40:22.228Z,12.81
2022-10-02T08:43:17.181Z,12.98
2022-10-02T08:46:16.890Z,13.22
2022-10-02T08:49:19.844Z,13.36
2022-10-02T08:52:15.432Z,13.49
2022-10-02T08:55:04.977Z,13.62
2022-10-02T08:57:47.153Z,13.74
2022-10-02T09:00:22.488Z,13.90
2022-10-02T09:03:25.804Z,14.00
2022-10-02T09:06:32.396Z,14.07
2022-10-02T09:09:41.798Z,14.11
2022-10-02T09:12:24.067Z,14.14
2022-10-02T09:14:56.764Z,14.14
2022-10-02T09:17:42.195Z,14.14
2022-10-02T09:20:55.593Z,14.18
2022-10-02T09:23:52.644Z,14.24
2022-10-02T09:26:26.984Z,14.24
2022-10-02T09:29:35.026Z,14.24
2022-10-02T09:32:34.682Z,14.24
2022-10-02T09:35:20.744Z,14.21
2022-10-02T09:38:14.276Z,14.23
2022-10-02T09:41:17.110Z,14.31
2022-10-02T09:44:23.700Z,14.43
2022-10-02T09:47:41.921Z,14.54
2022-10-02T09:50:57.012Z,14.63
2022-10-02T09:53:52.268Z,14.71
2022-10-02T09:56:45.568Z,14.79
2022-10-02T09:59:35.417Z,14.97
2022-10-02T10:02:35.838Z,15.11
2022-10-02T10:05:22.828Z,15.23
2022-10-02T10:08:17.093Z,15.44
2022-10-02T10:11:00.511Z,15.58
2022-10-02T10:13:42.166Z,15.76
2022-10-02T10:16:34.845Z,15.85
2022-10-02T10:19:34.232Z,15.95
2022-10-02T10:22:32.976Z,16.08
2022-10-02T10:25:39.198Z,16.15
2022-10-02T10:28:49.054Z,16.27
2022-10-02T10:32:09.262Z,16.34
2022-10-02T10:35:13.117Z,16.44
2022-10-02T10:38:12.968Z,16.55
2022-10-02T10:41:12.186Z,16.63
2022-10-02T10:44:16.306Z,16.66
2022-10-02T10:47:32.325Z,16.70
2022-10-02T10:50:25.130Z,16.77
2022-10-02T10:53:07.153Z,16.82
2022-10-02T10:55:49.596Z,16.85
2022-10-02T10:58:22.510Z,16.93
2022-10-02T11:01:02.180Z,16.97
2022-10-02T11:03:52.936Z,17.03
2022-10-02T11:06:56.275Z,17.06
2022-10-02T11:10:04.883Z,17.13
2022-10-02T11:13:03.886Z,17.13
2022-10-02T11:15:59.370Z,17.20
2022-10-02T11:18:48.942Z,17.26
2022-10-02T11:21:32.437Z,17.34
2022-10-02T11:24:26.005Z,17.41
2022-10-02T11:27:15.306Z,17.48
2022-10-02T11:30:02.392Z,17.56
2022-10-02T11:32:58.377Z,17.59
2022-10-02T11:35:55.297Z,17.59
2022-10-02T11:38:55.489Z,17.61
2022-10-02T11:41:40.093Z,17.63
2022-10-02T11:44:16.195Z,17.66
2022-10-02T11:47:07.249Z,17.68
2022-10-02T11:50:00.082Z,17.75
2022-10-02T11:52:48.346Z,17.84
2022-10-02T11:55:32.120Z,17.84
2022-10-02T11:58:16.355Z,17.89
2022-10-02T12:01:21.203Z,17.89
2022-10-02T12:04:14.269Z,17.97
2022-10-02T12:06:56.268Z,18.09
2022-10-02T12:09:31.094Z,18.14
2022-10-02T12:12:07.793Z,18.15
2022-10-02T12:14:38.116Z,18.16
2022-10-02T12:17:35.687Z,18.22
2022-10-02T12:20:32.400Z,18.34
2022-10-02T12:23:22.799Z,18.39
2022-10-02T12:26:12.020Z,18.61
2022-10-02T12:28:45.895Z,18.76
2022-10-02T12:31:16.595Z,18.81
2022-10-02T12:33:54.239Z,18.86
2022-10-02T12:36:48.117Z,18.83
2022-10-02T12:39:27.538Z,18.83
2022-10-02T12:42:08.029Z,18.82
2022-10-02T12:44:58.160Z,18.70
2022-10-02T12:47:47.270Z,18.70
2022-10-02T12:50:23.361Z,18.62
2022-10-02T12:53:13.655Z,18.50
2022-10-02T12:56:10.664Z,18.27
2022-10-02T12:58:52.644Z,18.13
2022-10-02T13:01:45.246Z,18.11
2022-10-02T13:04:41.961Z,17.96
2022-10-02T13:07:30.181Z,17.73
2022-10-02T13:10:05.212Z,17.59
2022-10-02T13:12:51.539Z,17.46
2022-10-02T13:15:27.967Z,17.26
2022-10-02T13:18:05.234Z,17.07
2022-10-02T13:20:39.854Z,16.79
2022-10-02T13:23:16.266Z,16.72
2022-10-02T13:25:58.691Z,16.58
2022-10-02T13:28:41.523Z,16.52
2022-10-02T13:31:15.611Z,16.51
2022-10-02T13:34:06.891Z,16.42
2022-10-02T13:36:45.087Z,16.41
2022-10-02T13:39:35.112Z,16.40
2022-10-02T13:42:18.679Z,16.36
2022-10-02T13:44:52.029Z,16.28
2022-10-02T13:47:31.666Z,16.15
2022-10-02T13:50:17.379Z,16.03
2022-10-02T13:52:55.723Z,16.11
2022-10-02T13:55:26.580Z,16.14
2022-10-02T13:58:08.675Z,16.02
2022-10-02T14:00:52.193Z,16.01
2022-10-02T14:03:31.075Z,15.88
2022-10-02T14:06:03.553Z,15.72
2022-10-02T14:08:52.825Z,15.69
2022-10-02T14:11:29.021Z,15.62
2022-10-02T14:14:08.081Z,15.68
2022-10-02T14:16:47.607Z,15.66
2022-10-02T14:19:24.861Z,15.72
2022-10-02T14:22:04.368Z,15.78
2022-10-02T14:25:03.741Z,15.53
2022-10-02T14:27:59.512Z,15.46
2022-10-02T14:30:32.871Z,15.43
2022-10-02T14:33:05.087Z,15.44
2022-10-02T14:35:34.879Z,15.45
2022-10-02T14:38:14.874Z,15.34
2022-10-02T14:40:51.273Z,15.28
2022-10-02T14:43:49.101Z,15.24
2022-10-02T14:46:22.467Z,14.99
2022-10-02T14:49:14.710Z,14.98
2022-10-02T14:52:02.317Z,15.01
2022-10-02T14:54:46.175Z,14.94
2022-10-02T14:57:28.465Z,14.86
2022-10-02T15:00:18.734Z,14.39
2022-10-02T15:03:03.476Z,14.15
2022-10-02T15:05:40.555Z,13.65
2022-10-02T15:08:15.776Z,13.62
2022-10-02T15:10:46.028Z,13.48
2022-10-02T15:13:24.826Z,13.28
2022-10-02T15:16:16.171Z,13.18
2022-10-02T15:18:48.670Z,13.00
2022-10-02T15:21:26.819Z,12.80
2022-10-02T15:23:58.050Z,12.65
2022-10-02T15:26:49.881Z,12.48
2022-10-02T15:29:30.512Z,12.42
2022-10-02T15:32:19.004Z,12.42
2022-10-02T15:34:52.063Z,12.47
2022-10-02T15:37:24.209Z,12.47
2022-10-02T15:40:06.004Z,12.46
2022-10-02T15:42:51.212Z,12.45
2022-10-02T15:45:48.586Z,12.49
2022-10-02T15:48:27.700Z,12.52
2022-10-02T15:50:59.284Z,12.55
2022-10-02T15:53:46.494Z,12.57
2022-10-02T15:56:35.650Z,12.54
2022-10-02T15:59:19.961Z,12.59
2022-10-02T16:01:54.881Z,12.64
2022-10-02T16:04:28.566Z,12.65
2022-10-02T16:07:26.097Z,12.65
2022-10-02T16:10:04.828Z,12.65
2022-10-02T16:12:43.593Z,12.64
2022-10-02T16:15:22.875Z,12.60
2022-10-02T16:18:19.820Z,12.59
2022-10-02T16:21:06.447Z,12.57
2022-10-02T16:23:52.153Z,12.57
2022-10-02T16:26:30.666Z,12.51
2022-10-02T16:29:10.228Z,12.57
2022-10-02T16:31:55.231Z,12.57
2022-10-02T16:34:46.798Z,12.62
2022-10-02T16:37:24.298Z,12.59
2022-10-02T16:40:00.347Z,12.56
2022-10-02T16:42:39.580Z,12.59
2022-10-02T16:45:36.475Z,12.50
2022-10-02T16:48:10.196Z,12.40
2022-10-02T16:50:50.097Z,12.40
2022-10-02T16:53:24.920Z,12.40
2022-10-02T16:55:58.128Z,12.41
2022-10-02T16:58:29.806Z,12.39
2022-10-02T17:00:59.440Z,12.39
2022-10-02T17:03:33.587Z,12.44
2022-10-02T17:06:05.173Z,12.48
2022-10-02T17:08:49.242Z,12.38
2022-10-02T17:11:21.526Z,12.36
2022-10-02T17:13:50.974Z,12.30
2022-10-02T17:16:23.609Z,12.33
2022-10-02T17:18:56.938Z,12.37
2022-10-02T17:21:28.494Z,12.41
2022-10-02T17:24:15.433Z,12.46
2022-10-02T17:26:45.707Z,12.47
2022-10-02T17:29:18.783Z,12.47
2022-10-02T17:31:52.345Z,12.35
2022-10-02T17:34:24.217Z,12.39
2022-10-02T17:37:03.910Z,12.29
2022-10-02T17:39:57.574Z,12.33
2022-10-02T17:42:36.117Z,12.35
2022-10-02T17:45:14.820Z,12.38
2022-10-02T17:47:50.754Z,12.33
2022-10-02T17:50:32.352Z,12.34
2022-10-02T17:53:24.929Z,12.38
2022-10-02T17:56:29.361Z,12.43
2022-10-02T17:59:07.552Z,12.46
2022-10-02T18:01:40.620Z,12.43
2022-10-02T18:04:13.065Z,12.45
2022-10-02T18:06:48.422Z,12.47
2022-10-02T18:09:31.563Z,12.47
2022-10-02T18:12:19.585Z,12.47
2022-10-02T18:15:05.842Z,12.47
2022-10-02T18:17:44.432Z,12.44
2022-10-02T18:20:20.737Z,12.42
2022-10-02T18:23:15.541Z,12.41
2022-10-02T18:26:09.126Z,12.21
2022-10-02T18:28:58.341Z,12.03
2022-10-02T18:31:54.702Z,12.03
2022-10-02T18:34:43.650Z,12.04
2022-10-02T18:37:32.083Z,12.06
2022-10-02T18:40:14.877Z,12.11
2022-10-02T18:42:51.197Z,12.15
2022-10-02T18:45:39.338Z,12.16
2022-10-02T18:48:27.002Z,12.15
2022-10-02T18:51:07.648Z,12.13
2022-10-02T18:53:44.510Z,12.07
2022-10-02T18:56:14.067Z,12.04
2022-10-02T18:58:53.413Z,12.10
2022-10-02T19:01:38.832Z,12.11
2022-10-02T19:04:27.900Z,12.11
2022-10-02T19:07:03.682Z,12.11
2022-10-02T19:09:32.250Z,11.97
2022-10-02T19:12:06.393Z,11.90
2022-10-02T19:14:36.725Z,11.84
2022-10-02T19:17:06.039Z,11.82
2022-10-02T19:19:33.991Z,11.81
2022-10-02T19:22:03.180Z,11.78
2022-10-02T19:24:32.869Z,11.83
2022-10-02T19:27:04.748Z,11.86
2022-10-02T19:29:36.794Z,11.89
2022-10-02T19:32:13.131Z,11.81
2022-10-02T19:34:42.080Z,11.77
2022-10-02T19:37:15.288Z,11.75
2022-10-02T19:39:48.969Z,11.75
2022-10-02T19:42:20.805Z,11.78
2022-10-02T19:44:50.741Z,11.82
2022-10-02T19:47:27.211Z,11.80
2022-10-02T19:49:56.723Z,11.85
2022-10-02T19:52:46.743Z,11.88
2022-10-02T19:55:21.747Z,11.90
2022-10-02T19:57:53.982Z,11.92
2022-10-02T20:00:21.852Z,11.92
2022-10-02T20:02:51.053Z,11.92
2022-10-02T20:05:25.995Z,11.94
2022-10-02T20:07:57.097Z,11.92
2022-10-02T20:10:31.034Z,11.89
2022-10-02T20:13:06.471Z,11.86
2022-10-02T20:15:56.962Z,11.82
2022-10-02T20:18:24.746Z,11.81
2022-10-02T20:20:55.202Z,11.77
2022-10-02T20:23:27.114Z,11.77
2022-10-02T20:25:58.307Z,11.74
2022-10-02T20:28:31.890Z,11.74
2022-10-02T20:31:02.637Z,11.62
2022-10-02T20:33:33.825Z,11.66
2022-10-02T20:36:05.025Z,11.66
2022-10-02T20:38:36.149Z,11.60
2022-10-02T20:41:08.884Z,11.61
2022-10-02T20:43:42.336Z,11.57
2022-10-02T20:46:30.318Z,11.46
2022-10-02T20:49:27.675Z,11.49
2022-10-02T20:52:17.454Z,11.54
2022-10-02T20:54:54.175Z,11.56
2022-10-02T20:58:00.733Z,11.58
2022-10-02T21:00:34.917Z,11.61
2022-10-02T21:03:23.461Z,11.50
2022-10-02T21:06:03.589Z,11.56
2022-10-02T21:08:47.883Z,11.58
2022-10-02T21:11:21.277Z,11.62
2022-10-02T21:14:10.763Z,11.66
2022-10-02T21:17:04.910Z,11.66
2022-10-02T21:20:02.325Z,11.68
2022-10-02T21:23:08.658Z,11.67
2022-10-02T21:26:04.490Z,11.68
2022-10-02T21:29:12.644Z,11.66
2022-10-02T21:31:52.928Z,11.61
2022-10-02T21:34:32.116Z,11.60
2022-10-02T21:37:00.957Z,11.59
2022-10-02T21:40:20.952Z,11.60
2022-10-02T21:43:33.229Z,11.61
2022-10-02T21:46:28.695Z,11.62
2022-10-02T21:49:22.452Z,11.64
2022-10-02T21:52:19.416Z,11.64
2022-10-02T21:55:14.028Z,11.63
2022-10-02T21:58:16.805Z,11.63
2022-10-02T22:00:46.624Z,11.61
2022-10-02T22:03:35.375Z,11.61
2022-10-02T22:06:36.413Z,11.57
2022-10-02T22:09:11.779Z,11.60
2022-10-02T22:11:49.106Z,11.59
2022-10-02T22:14:23.483Z,11.57
2022-10-02T22:16:57.129Z,11.51
2022-10-02T22:19:41.057Z,11.53
2022-10-02T22:22:21.542Z,11.50
2022-10-02T22:24:58.656Z,11.40
2022-10-02T22:27:38.987Z,11.39
2022-10-02T22:30:07.480Z,11.37
2022-10-02T22:33:08.603Z,11.41
2022-10-02T22:35:49.078Z,11.43
2022-10-02T22:38:20.952Z,11.45
2022-10-02T22:40:51.476Z,11.45
2022-10-02T22:43:28.206Z,11.47
2022-10-02T22:45:58.954Z,11.50
2022-10-02T22:48:33.317Z,11.52
2022-10-02T22:51:06.080Z,11.56
2022-10-02T22:53:37.148Z,11.58
2022-10-02T22:56:21.054Z,11.58
2022-10-02T22:58:56.484Z,11.49
2022-10-02T23:01:27.997Z,11.51
2022-10-02T23:03:58.745Z,11.47
2022-10-02T23:06:30.724Z,11.48
2022-10-02T23:09:04.147Z,11.47
2022-10-02T23:11:39.254Z,11.35
2022-10-02T23:14:16.759Z,11.36
2022-10-02T23:16:48.089Z,11.32
2022-10-02T23:19:18.953Z,11.33
2022-10-02T23:21:50.743Z,11.27
2022-10-02T23:24:24.940Z,11.25
2022-10-02T23:26:55.195Z,11.15
2022-10-02T23:29:28.904Z,11.14
2022-10-02T23:32:00.565Z,11.16
2022-10-02T23:34:39.177Z,11.18
2022-10-02T23:37:14.418Z,11.13
2022-10-02T23:39:47.384Z,11.11
2022-10-02T23:42:16.692Z,11.12
2022-10-02T23:44:46.990Z,11.15
2022-10-02T23:47:31.141Z,11.17
2022-10-02T23:49:59.776Z,11.12
2022-10-02T23:52:42.117Z,11.09
2022-10-02T23:55:19.272Z,11.09
2022-10-02T23:58:11.307Z,10.87
